sensor_id;sensor_type;location;lat;lon;timestamp;pressure;altitude;pressure_sealevel;temperature;humidity
17209;BME280;8720;48.488;9.202;2022-12-07T00:01:05;97038.59;;;9.90;54.91
17209;BME280;8720;48.488;9.202;2022-12-07T00:03:32;97039.47;;;9.90;54.94
17209;BME280;8720;48.488;9.202;2022-12-07T00:06:00;97036.88;;;9.89;54.98
17209;BME280;8720;48.488;9.202;2022-12-07T00:08:28;97040.28;;;9.92;54.87
17209;BME280;8720;48.488;9.202;2022-12-07T00:11:01;97039.38;;;9.93;54.84
17209;BME280;8720;48.488;9.202;2022-12-07T00:13:31;97045.50;;;9.92;54.78
17209;BME280;8720;48.488;9.202;2022-12-07T00:16:01;97038.53;;;9.93;54.63
17209;BME280;8720;48.488;9.202;2022-12-07T00:18:28;97035.06;;;9.92;54.79
17209;BME280;8720;48.488;9.202;2022-12-07T00:21:00;97031.56;;;9.92;54.80
17209;BME280;8720;48.488;9.202;2022-12-07T00:23:28;97030.88;;;9.84;54.78
17209;BME280;8720;48.488;9.202;2022-12-07T00:25:55;97040.28;;;9.92;54.77
17209;BME280;8720;48.488;9.202;2022-12-07T00:28:23;97036.81;;;9.92;54.87
17209;BME280;8720;48.488;9.202;2022-12-07T00:30:51;97037.72;;;9.91;54.76
17209;BME280;8720;48.488;9.202;2022-12-07T00:33:19;97035.09;;;9.91;54.78
17209;BME280;8720;48.488;9.202;2022-12-07T00:35:46;97029.88;;;9.91;54.84
17209;BME280;8720;48.488;9.202;2022-12-07T00:38:13;97029.88;;;9.89;54.78
17209;BME280;8720;48.488;9.202;2022-12-07T00:40:40;97030.78;;;9.88;54.82
17209;BME280;8720;48.488;9.202;2022-12-07T00:43:07;97030.81;;;9.87;54.86
17209;BME280;8720;48.488;9.202;2022-12-07T00:45:34;97030.81;;;9.87;54.73
17209;BME280;8720;48.488;9.202;2022-12-07T00:48:03;97025.59;;;9.87;54.84
17209;BME280;8720;48.488;9.202;2022-12-07T00:50:30;97024.69;;;9.88;54.70
17209;BME280;8720;48.488;9.202;2022-12-07T00:52:58;97023.81;;;9.87;54.79
17209;BME280;8720;48.488;9.202;2022-12-07T00:55:25;97022.94;;;9.88;54.79
17209;BME280;8720;48.488;9.202;2022-12-07T00:57:52;97023.81;;;9.89;54.89
17209;BME280;8720;48.488;9.202;2022-12-07T01:00:19;97024.66;;;9.89;54.88
17209;BME280;8720;48.488;9.202;2022-12-07T01:02:47;97027.25;;;9.91;54.76
17209;BME280;8720;48.488;9.202;2022-12-07T01:05:15;97024.66;;;9.89;54.70
17209;BME280;8720;48.488;9.202;2022-12-07T01:07:42;97019.44;;;9.89;54.68
17209;BME280;8720;48.488;9.202;2022-12-07T01:10:10;97018.59;;;9.89;54.70
17209;BME280;8720;48.488;9.202;2022-12-07T01:12:38;97023.81;;;9.89;54.80
17209;BME280;8720;48.488;9.202;2022-12-07T01:15:07;97026.44;;;9.89;54.80
17209;BME280;8720;48.488;9.202;2022-12-07T01:17:34;97019.53;;;9.85;54.99
17209;BME280;8720;48.488;9.202;2022-12-07T01:20:03;97029.09;;;9.86;55.02
17209;BME280;8720;48.488;9.202;2022-12-07T01:22:36;97035.19;;;9.86;54.97
17209;BME280;8720;48.488;9.202;2022-12-07T01:25:04;97030.00;;;9.85;54.83
17209;BME280;8720;48.488;9.202;2022-12-07T01:27:32;97023.97;;;9.81;55.08
17209;BME280;8720;48.488;9.202;2022-12-07T01:30:00;97034.41;;;9.83;54.95
17209;BME280;8720;48.488;9.202;2022-12-07T01:32:27;97032.66;;;9.82;55.04
17209;BME280;8720;48.488;9.202;2022-12-07T01:34:55;97039.63;;;9.83;55.05
17209;BME280;8720;48.488;9.202;2022-12-07T01:37:23;97039.66;;;9.81;54.98
17209;BME280;8720;48.488;9.202;2022-12-07T01:39:52;97032.81;;;9.74;55.03
17209;BME280;8720;48.488;9.202;2022-12-07T01:42:19;97032.00;;;9.72;54.97
17209;BME280;8720;48.488;9.202;2022-12-07T01:45:44;97041.44;;;9.78;54.99
17209;BME280;8720;48.488;9.202;2022-12-07T01:48:16;97041.47;;;9.76;54.79
17209;BME280;8720;48.488;9.202;2022-12-07T01:50:49;97038.84;;;9.78;54.99
17209;BME280;8720;48.488;9.202;2022-12-07T01:53:18;97040.63;;;9.77;55.02
17209;BME280;8720;48.488;9.202;2022-12-07T01:55:52;97037.97;;;9.79;54.92
17209;BME280;8720;48.488;9.202;2022-12-07T01:58:21;97038.00;;;9.77;54.94
17209;BME280;8720;48.488;9.202;2022-12-07T02:00:48;97039.66;;;9.80;55.00
17209;BME280;8720;48.488;9.202;2022-12-07T02:03:22;97035.31;;;9.80;54.98
17209;BME280;8720;48.488;9.202;2022-12-07T02:05:52;97036.19;;;9.81;54.89
17209;BME280;8720;48.488;9.202;2022-12-07T02:08:21;97037.88;;;9.82;55.05
17209;BME280;8720;48.488;9.202;2022-12-07T02:10:50;97038.75;;;9.82;55.02
17209;BME280;8720;48.488;9.202;2022-12-07T02:13:22;97039.63;;;9.83;54.93
17209;BME280;8720;48.488;9.202;2022-12-07T02:16:09;97037.88;;;9.82;54.72
17209;BME280;8720;48.488;9.202;2022-12-07T02:18:55;97041.41;;;9.81;55.06
17209;BME280;8720;48.488;9.202;2022-12-07T02:21:35;97048.41;;;9.79;54.99
17209;BME280;8720;48.488;9.202;2022-12-07T02:24:23;97037.09;;;9.78;54.99
17209;BME280;8720;48.488;9.202;2022-12-07T02:27:27;97038.00;;;9.76;55.16
17209;BME280;8720;48.488;9.202;2022-12-07T02:30:04;97042.34;;;9.77;55.02
17209;BME280;8720;48.488;9.202;2022-12-07T02:32:43;97039.78;;;9.75;55.20
17209;BME280;8720;48.488;9.202;2022-12-07T02:35:17;97020.94;;;9.60;55.15
17209;BME280;8720;48.488;9.202;2022-12-07T02:37:58;97038.94;;;9.72;55.12
17209;BME280;8720;48.488;9.202;2022-12-07T02:40:34;97025.09;;;9.70;55.11
17209;BME280;8720;48.488;9.202;2022-12-07T02:43:10;97037.25;;;9.71;55.14
17209;BME280;8720;48.488;9.202;2022-12-07T02:45:42;97036.34;;;9.72;55.26
17209;BME280;8720;48.488;9.202;2022-12-07T02:48:15;97039.81;;;9.72;55.17
17209;BME280;8720;48.488;9.202;2022-12-07T02:50:47;97037.22;;;9.72;55.20
17209;BME280;8720;48.488;9.202;2022-12-07T02:53:30;97025.91;;;9.72;55.18
17209;BME280;8720;48.488;9.202;2022-12-07T02:55:59;97030.28;;;9.71;54.98
17209;BME280;8720;48.488;9.202;2022-12-07T02:58:46;97022.47;;;9.70;55.19
17209;BME280;8720;48.488;9.202;2022-12-07T03:04:17;97024.16;;;9.72;55.31
17209;BME280;8720;48.488;9.202;2022-12-07T03:06:51;97032.00;;;9.72;55.26
17209;BME280;8720;48.488;9.202;2022-12-07T03:09:29;97015.59;;;9.64;55.24
17209;BME280;8720;48.488;9.202;2022-12-07T03:12:07;97028.50;;;9.72;55.38
17209;BME280;8720;48.488;9.202;2022-12-07T03:14:45;97028.53;;;9.70;55.23
17209;BME280;8720;48.488;9.202;2022-12-07T03:17:18;97012.28;;;9.58;55.44
17209;BME280;8720;48.488;9.202;2022-12-07T03:19:55;97027.00;;;9.62;55.44
17209;BME280;8720;48.488;9.202;2022-12-07T03:22:28;97027.13;;;9.56;55.52
17209;BME280;8720;48.488;9.202;2022-12-07T03:25:02;97021.09;;;9.52;55.59
17209;BME280;8720;48.488;9.202;2022-12-07T03:27:35;97010.69;;;9.49;55.61
17209;BME280;8720;48.488;9.202;2022-12-07T03:30:08;97018.56;;;9.48;55.66
17209;BME280;8720;48.488;9.202;2022-12-07T03:32:41;97016.88;;;9.45;55.64
17209;BME280;8720;48.488;9.202;2022-12-07T03:35:18;97016.91;;;9.44;55.54
17209;BME280;8720;48.488;9.202;2022-12-07T03:37:52;97024.81;;;9.39;55.63
17209;BME280;8720;48.488;9.202;2022-12-07T03:40:30;97023.16;;;9.37;55.49
17209;BME280;8720;48.488;9.202;2022-12-07T03:43:03;97016.25;;;9.33;55.63
17209;BME280;8720;48.488;9.202;2022-12-07T03:45:39;97006.81;;;9.27;55.52
17209;BME280;8720;48.488;9.202;2022-12-07T03:48:15;97006.75;;;9.29;55.61
17209;BME280;8720;48.488;9.202;2022-12-07T03:50:54;97003.28;;;9.28;55.36
17209;BME280;8720;48.488;9.202;2022-12-07T03:53:35;97005.88;;;9.30;55.10
17209;BME280;8720;48.488;9.202;2022-12-07T03:56:06;97009.31;;;9.33;54.97
17209;BME280;8720;48.488;9.202;2022-12-07T03:58:36;97009.31;;;9.32;54.82
17209;BME280;8720;48.488;9.202;2022-12-07T04:01:03;97010.97;;;9.36;54.90
17209;BME280;8720;48.488;9.202;2022-12-07T04:03:31;97010.94;;;9.37;54.87
17209;BME280;8720;48.488;9.202;2022-12-07T04:06:00;97009.16;;;9.39;54.76
17209;BME280;8720;48.488;9.202;2022-12-07T04:08:27;97016.97;;;9.39;54.72
17209;BME280;8720;48.488;9.202;2022-12-07T04:10:54;97018.72;;;9.40;54.73
17209;BME280;8720;48.488;9.202;2022-12-07T04:13:21;97015.28;;;9.38;54.63
17209;BME280;8720;48.488;9.202;2022-12-07T04:15:49;97016.16;;;9.39;54.69
17209;BME280;8720;48.488;9.202;2022-12-07T04:18:16;97016.16;;;9.37;54.68
17209;BME280;8720;48.488;9.202;2022-12-07T04:20:43;97010.97;;;9.36;54.67
17209;BME280;8720;48.488;9.202;2022-12-07T04:23:11;97010.97;;;9.36;54.82
17209;BME280;8720;48.488;9.202;2022-12-07T04:25:39;97008.41;;;9.34;54.87
17209;BME280;8720;48.488;9.202;2022-12-07T04:28:06;97010.16;;;9.32;54.89
17209;BME280;8720;48.488;9.202;2022-12-07T04:30:33;97008.47;;;9.31;54.91
17209;BME280;8720;48.488;9.202;2022-12-07T04:33:00;96998.94;;;9.29;54.85
17209;BME280;8720;48.488;9.202;2022-12-07T04:35:27;97001.59;;;9.27;54.92
17209;BME280;8720;48.488;9.202;2022-12-07T04:37:54;97001.59;;;9.26;54.90
17209;BME280;8720;48.488;9.202;2022-12-07T04:40:23;97006.84;;;9.24;54.82
17209;BME280;8720;48.488;9.202;2022-12-07T04:42:50;97005.13;;;9.23;54.83
17209;BME280;8720;48.488;9.202;2022-12-07T04:45:17;97004.28;;;9.23;54.86
17209;BME280;8720;48.488;9.202;2022-12-07T04:47:44;97005.16;;;9.22;54.87
17209;BME280;8720;48.488;9.202;2022-12-07T04:50:11;97004.34;;;9.20;54.87
17209;BME280;8720;48.488;9.202;2022-12-07T04:52:39;97000.00;;;9.18;54.98
17209;BME280;8720;48.488;9.202;2022-12-07T04:55:07;96999.19;;;9.15;54.92
17209;BME280;8720;48.488;9.202;2022-12-07T04:57:35;97007.06;;;9.13;54.94
17209;BME280;8720;48.488;9.202;2022-12-07T05:00:03;97007.94;;;9.12;55.09
17209;BME280;8720;48.488;9.202;2022-12-07T05:02:31;97017.53;;;9.10;54.93
17209;BME280;8720;48.488;9.202;2022-12-07T05:04:58;96990.69;;;9.05;54.98
17209;BME280;8720;48.488;9.202;2022-12-07T05:07:25;96998.47;;;9.07;55.03
17209;BME280;8720;48.488;9.202;2022-12-07T05:09:52;97001.13;;;9.05;55.05
17209;BME280;8720;48.488;9.202;2022-12-07T05:12:19;96993.31;;;9.04;54.96
17209;BME280;8720;48.488;9.202;2022-12-07T05:14:48;96994.22;;;9.01;54.78
17209;BME280;8720;48.488;9.202;2022-12-07T05:17:15;96998.63;;;8.99;54.96
17209;BME280;8720;48.488;9.202;2022-12-07T05:19:42;96992.59;;;8.96;54.80
17209;BME280;8720;48.488;9.202;2022-12-07T05:22:10;96987.44;;;8.91;55.00
17209;BME280;8720;48.488;9.202;2022-12-07T05:24:37;96984.06;;;8.86;54.84
17209;BME280;8720;48.488;9.202;2022-12-07T05:27:04;96984.16;;;8.82;54.86
17209;BME280;8720;48.488;9.202;2022-12-07T05:29:31;96987.72;;;8.76;54.93
17209;BME280;8720;48.488;9.202;2022-12-07T05:32:00;96992.97;;;8.75;54.91
17209;BME280;8720;48.488;9.202;2022-12-07T05:34:27;96991.28;;;8.72;55.04
17209;BME280;8720;48.488;9.202;2022-12-07T05:36:54;96996.53;;;8.71;54.93
17209;BME280;8720;48.488;9.202;2022-12-07T05:39:21;96996.56;;;8.69;54.99
17209;BME280;8720;48.488;9.202;2022-12-07T05:41:49;96993.13;;;8.67;55.04
17209;BME280;8720;48.488;9.202;2022-12-07T05:44:33;96993.22;;;8.61;55.02
17209;BME280;8720;48.488;9.202;2022-12-07T05:47:02;97001.91;;;8.60;54.96
17209;BME280;8720;48.488;9.202;2022-12-07T05:49:30;96995.94;;;8.54;54.80
17209;BME280;8720;48.488;9.202;2022-12-07T05:51:57;97012.56;;;8.48;54.79
17209;BME280;8720;48.488;9.202;2022-12-07T05:54:24;96999.66;;;8.39;54.72
17209;BME280;8720;48.488;9.202;2022-12-07T05:56:52;97005.84;;;8.32;54.60
17209;BME280;8720;48.488;9.202;2022-12-07T05:59:19;97001.59;;;8.23;54.51
17209;BME280;8720;48.488;9.202;2022-12-07T06:01:48;96995.69;;;8.12;54.51
17209;BME280;8720;48.488;9.202;2022-12-07T06:04:17;96997.53;;;8.04;54.54
17209;BME280;8720;48.488;9.202;2022-12-07T06:06:45;96995.94;;;7.96;54.54
17209;BME280;8720;48.488;9.202;2022-12-07T06:09:12;96995.22;;;7.86;54.47
17209;BME280;8720;48.488;9.202;2022-12-07T06:11:40;96997.06;;;7.78;54.53
17209;BME280;8720;48.488;9.202;2022-12-07T06:14:25;97007.59;;;7.68;54.59
17209;BME280;8720;48.488;9.202;2022-12-07T06:16:52;96999.91;;;7.60;54.50
17209;BME280;8720;48.488;9.202;2022-12-07T06:19:21;96987.88;;;7.52;54.68
17209;BME280;8720;48.488;9.202;2022-12-07T06:21:48;96994.91;;;7.44;54.81
17209;BME280;8720;48.488;9.202;2022-12-07T06:24:16;96983.72;;;7.35;54.87
17209;BME280;8720;48.488;9.202;2022-12-07T06:26:44;96987.28;;;7.28;54.85
17209;BME280;8720;48.488;9.202;2022-12-07T06:29:12;96985.66;;;7.20;55.18
17209;BME280;8720;48.488;9.202;2022-12-07T06:31:39;96987.47;;;7.13;55.03
17209;BME280;8720;48.488;9.202;2022-12-07T06:34:11;96981.50;;;7.05;55.28
17209;BME280;8720;48.488;9.202;2022-12-07T06:36:40;96988.44;;;7.03;55.28
17209;BME280;8720;48.488;9.202;2022-12-07T06:39:08;96993.69;;;6.99;55.37
17209;BME280;8720;48.488;9.202;2022-12-07T06:41:36;97005.88;;;6.95;55.20
17209;BME280;8720;48.488;9.202;2022-12-07T06:44:04;97009.34;;;6.93;55.33
17209;BME280;8720;48.488;9.202;2022-12-07T06:46:31;97008.53;;;6.89;55.29
17209;BME280;8720;48.488;9.202;2022-12-07T06:49:01;97008.56;;;6.86;55.22
17209;BME280;8720;48.488;9.202;2022-12-07T06:51:28;97008.56;;;6.83;55.29
17209;BME280;8720;48.488;9.202;2022-12-07T06:53:57;97007.72;;;6.83;55.30
17209;BME280;8720;48.488;9.202;2022-12-07T06:56:24;97005.09;;;6.83;55.38
17209;BME280;8720;48.488;9.202;2022-12-07T06:58:51;97004.25;;;6.84;55.36
17209;BME280;8720;48.488;9.202;2022-12-07T07:01:18;97006.81;;;6.87;55.46
17209;BME280;8720;48.488;9.202;2022-12-07T07:03:47;97006.78;;;6.90;55.26
17209;BME280;8720;48.488;9.202;2022-12-07T07:06:15;97008.50;;;6.94;55.30
17209;BME280;8720;48.488;9.202;2022-12-07T07:08:42;97014.50;;;6.97;55.21
17209;BME280;8720;48.488;9.202;2022-12-07T07:11:11;97018.81;;;7.01;55.17
17209;BME280;8720;48.488;9.202;2022-12-07T07:13:39;97010.13;;;7.01;55.28
17209;BME280;8720;48.488;9.202;2022-12-07T07:16:07;97020.47;;;7.08;55.02
17209;BME280;8720;48.488;9.202;2022-12-07T07:18:35;97018.69;;;7.12;55.29
17209;BME280;8720;48.488;9.202;2022-12-07T07:21:03;97026.44;;;7.16;55.22
17209;BME280;8720;48.488;9.202;2022-12-07T07:23:31;97033.34;;;7.20;55.27
17209;BME280;8720;48.488;9.202;2022-12-07T07:25:58;97030.69;;;7.23;55.34
17209;BME280;8720;48.488;9.202;2022-12-07T07:28:27;97039.34;;;7.28;55.40
17209;BME280;8720;48.488;9.202;2022-12-07T07:30:54;97034.97;;;7.30;55.28
17209;BME280;8720;48.488;9.202;2022-12-07T07:33:21;97041.00;;;7.31;55.34
17209;BME280;8720;48.488;9.202;2022-12-07T07:35:48;97034.09;;;7.31;55.49
17209;BME280;8720;48.488;9.202;2022-12-07T07:38:15;97040.13;;;7.33;55.74
17209;BME280;8720;48.488;9.202;2022-12-07T07:40:43;97036.56;;;7.41;55.63
17209;BME280;8720;48.488;9.202;2022-12-07T07:43:10;97035.63;;;7.48;55.79
17209;BME280;8720;48.488;9.202;2022-12-07T07:45:38;97035.56;;;7.54;55.83
17209;BME280;8720;48.488;9.202;2022-12-07T07:48:06;97038.94;;;7.60;55.65
17209;BME280;8720;48.488;9.202;2022-12-07T07:50:33;97039.78;;;7.65;55.50
17209;BME280;8720;48.488;9.202;2022-12-07T07:53:00;97036.25;;;7.69;55.48
17209;BME280;8720;48.488;9.202;2022-12-07T07:55:28;97029.25;;;7.73;55.48
17209;BME280;8720;48.488;9.202;2022-12-07T07:57:55;97003.34;;;7.62;55.48
17209;BME280;8720;48.488;9.202;2022-12-07T08:00:23;97030.94;;;7.75;55.46
17209;BME280;8720;48.488;9.202;2022-12-07T08:02:51;97038.75;;;7.75;55.33
17209;BME280;8720;48.488;9.202;2022-12-07T08:05:18;97023.22;;;7.68;55.27
17209;BME280;8720;48.488;9.202;2022-12-07T08:07:46;97043.00;;;7.84;55.36
17209;BME280;8720;48.488;9.202;2022-12-07T08:10:14;97042.91;;;7.90;55.39
17209;BME280;8720;48.488;9.202;2022-12-07T08:12:43;97042.00;;;7.94;55.39
17209;BME280;8720;48.488;9.202;2022-12-07T08:15:44;97052.41;;;7.94;55.43
17209;BME280;8720;48.488;9.202;2022-12-07T08:18:15;97064.50;;;7.96;55.42
17209;BME280;8720;48.488;9.202;2022-12-07T08:20:42;97058.41;;;7.99;55.57
17209;BME280;8720;48.488;9.202;2022-12-07T08:23:10;97064.41;;;8.05;55.37
17209;BME280;8720;48.488;9.202;2022-12-07T08:25:38;97066.09;;;8.08;55.81
17209;BME280;8720;48.488;9.202;2022-12-07T08:28:06;97063.38;;;8.17;55.55
17209;BME280;8720;48.488;9.202;2022-12-07T08:30:34;97071.13;;;8.24;55.72
17209;BME280;8720;48.488;9.202;2022-12-07T08:33:01;97067.59;;;8.29;55.44
17209;BME280;8720;48.488;9.202;2022-12-07T08:35:32;97051.97;;;8.25;55.35
17209;BME280;8720;48.488;9.202;2022-12-07T08:38:00;97069.19;;;8.39;55.45
17209;BME280;8720;48.488;9.202;2022-12-07T08:40:28;97074.28;;;8.45;55.47
17209;BME280;8720;48.488;9.202;2022-12-07T08:42:55;97077.59;;;8.54;55.43
17209;BME280;8720;48.488;9.202;2022-12-07T08:45:22;97076.66;;;8.61;55.41
17209;BME280;8720;48.488;9.202;2022-12-07T08:47:54;97070.41;;;8.70;55.23
17209;BME280;8720;48.488;9.202;2022-12-07T08:50:23;97069.44;;;8.77;55.30
17209;BME280;8720;48.488;9.202;2022-12-07T08:52:56;97058.03;;;8.84;55.17
17209;BME280;8720;48.488;9.202;2022-12-07T08:55:24;97063.09;;;8.91;55.26
17209;BME280;8720;48.488;9.202;2022-12-07T08:57:52;97068.19;;;8.99;55.19
17209;BME280;8720;48.488;9.202;2022-12-07T09:00:20;97068.09;;;9.05;55.10
17209;BME280;8720;48.488;9.202;2022-12-07T09:02:47;97065.38;;;9.11;55.00
17209;BME280;8720;48.488;9.202;2022-12-07T09:05:14;97070.47;;;9.18;54.96
17209;BME280;8720;48.488;9.202;2022-12-07T09:07:43;97065.09;;;9.26;54.86
17209;BME280;8720;48.488;9.202;2022-12-07T09:10:12;97067.56;;;9.35;54.68
17209;BME280;8720;48.488;9.202;2022-12-07T09:12:40;97070.03;;;9.43;54.67
17209;BME280;8720;48.488;9.202;2022-12-07T09:15:08;97066.41;;;9.50;54.49
17209;BME280;8720;48.488;9.202;2022-12-07T09:17:35;97069.72;;;9.58;54.46
17209;BME280;8720;48.488;9.202;2022-12-07T09:20:05;97070.44;;;9.66;54.33
17209;BME280;8720;48.488;9.202;2022-12-07T09:22:33;97069.50;;;9.70;54.24
17209;BME280;8720;48.488;9.202;2022-12-07T09:25:01;97058.19;;;9.69;54.14
17209;BME280;8720;48.488;9.202;2022-12-07T09:27:30;97066.66;;;9.80;54.15
17209;BME280;8720;48.488;9.202;2022-12-07T09:29:57;97070.06;;;9.84;54.03
17209;BME280;8720;48.488;9.202;2022-12-07T09:32:25;97066.50;;;9.88;53.91
17209;BME280;8720;48.488;9.202;2022-12-07T09:34:52;97068.16;;;9.92;53.95
17209;BME280;8720;48.488;9.202;2022-12-07T09:37:19;97071.53;;;9.97;54.15
17209;BME280;8720;48.488;9.202;2022-12-07T09:39:46;97068.78;;;10.03;53.89
17209;BME280;8720;48.488;9.202;2022-12-07T09:42:27;97066.09;;;10.07;54.07
17209;BME280;8720;48.488;9.202;2022-12-07T09:44:58;97061.63;;;10.14;53.96
17209;BME280;8720;48.488;9.202;2022-12-07T09:47:26;97051.00;;;10.20;53.86
17209;BME280;8720;48.488;9.202;2022-12-07T09:50:00;97051.72;;;10.28;53.53
17209;BME280;8720;48.488;9.202;2022-12-07T09:52:30;97045.47;;;10.35;53.83
17209;BME280;8720;48.488;9.202;2022-12-07T09:54:58;97043.50;;;10.43;53.69
17209;BME280;8720;48.488;9.202;2022-12-07T09:57:31;97038.16;;;10.49;53.56
17209;BME280;8720;48.488;9.202;2022-12-07T10:00:07;97044.16;;;10.54;53.57
17209;BME280;8720;48.488;9.202;2022-12-07T10:02:41;97048.41;;;10.58;53.26
17209;BME280;8720;48.488;9.202;2022-12-07T10:05:16;97036.06;;;10.63;53.35
17209;BME280;8720;48.488;9.202;2022-12-07T10:07:45;97035.97;;;10.68;53.30
17209;BME280;8720;48.488;9.202;2022-12-07T10:10:18;97034.09;;;10.73;53.14
17209;BME280;8720;48.488;9.202;2022-12-07T10:12:58;97028.75;;;10.77;53.12
17209;BME280;8720;48.488;9.202;2022-12-07T10:15:50;97026.06;;;10.80;53.37
17209;BME280;8720;48.488;9.202;2022-12-07T10:18:38;97024.19;;;10.85;53.08
17209;BME280;8720;48.488;9.202;2022-12-07T10:21:14;97017.94;;;10.91;52.94
17209;BME280;8720;48.488;9.202;2022-12-07T10:23:59;97018.69;;;10.96;52.83
17209;BME280;8720;48.488;9.202;2022-12-07T10:26:31;97022.91;;;11.02;52.82
17209;BME280;8720;48.488;9.202;2022-12-07T10:29:01;97012.28;;;11.08;52.66
17209;BME280;8720;48.488;9.202;2022-12-07T10:31:30;97017.34;;;11.14;52.37
17209;BME280;8720;48.488;9.202;2022-12-07T10:34:00;97011.09;;;11.19;52.29
17209;BME280;8720;48.488;9.202;2022-12-07T10:36:36;97013.66;;;11.22;52.13
17209;BME280;8720;48.488;9.202;2022-12-07T10:39:14;97008.34;;;11.24;51.89
17209;BME280;8720;48.488;9.202;2022-12-07T10:41:54;97006.56;;;11.26;51.80
17209;BME280;8720;48.488;9.202;2022-12-07T10:44:26;97001.22;;;11.29;51.61
17209;BME280;8720;48.488;9.202;2022-12-07T10:47:20;97005.44;;;11.34;51.79
17209;BME280;8720;48.488;9.202;2022-12-07T10:50:18;97008.00;;;11.37;51.79
17209;BME280;8720;48.488;9.202;2022-12-07T10:53:10;96993.94;;;11.40;51.41
17209;BME280;8720;48.488;9.202;2022-12-07T10:55:56;96999.09;;;11.43;51.34
17209;BME280;8720;48.488;9.202;2022-12-07T10:58:48;96989.44;;;11.45;51.38
17209;BME280;8720;48.488;9.202;2022-12-07T11:01:25;96986.72;;;11.48;51.10
17209;BME280;8720;48.488;9.202;2022-12-07T11:04:26;96981.56;;;11.45;51.27
17209;BME280;8720;48.488;9.202;2022-12-07T11:07:08;96978.19;;;11.41;51.21
17209;BME280;8720;48.488;9.202;2022-12-07T11:10:09;96980.00;;;11.39;51.44
17209;BME280;8720;48.488;9.202;2022-12-07T11:12:54;96970.34;;;11.40;51.39
17209;BME280;8720;48.488;9.202;2022-12-07T11:15:29;96977.97;;;11.49;51.09
17209;BME280;8720;48.488;9.202;2022-12-07T11:18:07;96969.06;;;11.54;51.03
17209;BME280;8720;48.488;9.202;2022-12-07T11:20:51;96973.28;;;11.60;51.01
17209;BME280;8720;48.488;9.202;2022-12-07T11:23:33;96966.22;;;11.62;50.65
17209;BME280;8720;48.488;9.202;2022-12-07T11:26:17;96957.47;;;11.63;50.79
17209;BME280;8720;48.488;9.202;2022-12-07T11:29:14;96956.50;;;11.67;50.81
17209;BME280;8720;48.488;9.202;2022-12-07T11:32:00;96952.03;;;11.70;50.51
17209;BME280;8720;48.488;9.202;2022-12-07T11:34:42;96945.03;;;11.71;50.55
17209;BME280;8720;48.488;9.202;2022-12-07T11:37:20;96939.72;;;11.72;50.51
17209;BME280;8720;48.488;9.202;2022-12-07T11:39:52;96947.53;;;11.75;50.34
17209;BME280;8720;48.488;9.202;2022-12-07T11:42:25;96943.03;;;11.79;50.29
17209;BME280;8720;48.488;9.202;2022-12-07T11:44:59;96937.75;;;11.80;50.08
17209;BME280;8720;48.488;9.202;2022-12-07T11:47:35;96942.19;;;11.78;50.21
17209;BME280;8720;48.488;9.202;2022-12-07T11:50:22;96945.66;;;11.79;50.35
17209;BME280;8720;48.488;9.202;2022-12-07T11:52:58;96936.91;;;11.80;50.34
17209;BME280;8720;48.488;9.202;2022-12-07T11:55:42;96936.84;;;11.81;50.18
17209;BME280;8720;48.488;9.202;2022-12-07T11:58:36;96934.25;;;11.81;50.45
17209;BME280;8720;48.488;9.202;2022-12-07T12:01:24;96932.38;;;11.85;50.14
17209;BME280;8720;48.488;9.202;2022-12-07T12:03:59;96924.50;;;11.85;50.17
17209;BME280;8720;48.488;9.202;2022-12-07T12:06:28;96929.66;;;11.88;50.06
17209;BME280;8720;48.488;9.202;2022-12-07T12:09:05;96919.34;;;11.82;49.92
17209;BME280;8720;48.488;9.202;2022-12-07T12:12:20;96920.03;;;11.88;50.31
17209;BME280;8720;48.488;9.202;2022-12-07T12:15:03;96906.13;;;11.86;49.55
17209;BME280;8720;48.488;9.202;2022-12-07T12:18:07;96895.69;;;11.85;50.10
17209;BME280;8720;48.488;9.202;2022-12-07T12:20:45;96905.97;;;11.91;50.05
17209;BME280;8720;48.488;9.202;2022-12-07T12:23:19;96893.69;;;11.93;49.79
17209;BME280;8720;48.488;9.202;2022-12-07T12:25:51;96895.38;;;11.94;49.61
17209;BME280;8720;48.488;9.202;2022-12-07T12:28:27;96900.63;;;11.94;49.73
17209;BME280;8720;48.488;9.202;2022-12-07T12:31:10;96889.34;;;11.92;49.67
17209;BME280;8720;48.488;9.202;2022-12-07T12:33:44;96891.06;;;11.93;49.62
17209;BME280;8720;48.488;9.202;2022-12-07T12:36:24;96884.00;;;11.95;49.58
17209;BME280;8720;48.488;9.202;2022-12-07T12:39:11;96884.81;;;11.97;49.44
17209;BME280;8720;48.488;9.202;2022-12-07T12:41:58;96885.66;;;11.98;49.56
17209;BME280;8720;48.488;9.202;2022-12-07T12:45:19;96891.06;;;11.93;49.85
17209;BME280;8720;48.488;9.202;2022-12-07T12:48:27;96892.94;;;11.88;50.26
17209;BME280;8720;48.488;9.202;2022-12-07T12:51:37;96888.56;;;11.88;50.01
17209;BME280;8720;48.488;9.202;2022-12-07T12:54:14;96885.94;;;11.88;49.66
17209;BME280;8720;48.488;9.202;2022-12-07T12:56:53;96885.06;;;11.90;49.54
17209;BME280;8720;48.488;9.202;2022-12-07T12:59:28;96878.84;;;11.92;49.67
17209;BME280;8720;48.488;9.202;2022-12-07T13:02:16;96876.22;;;11.92;49.49
17209;BME280;8720;48.488;9.202;2022-12-07T13:04:53;96877.03;;;11.94;49.56
17209;BME280;8720;48.488;9.202;2022-12-07T13:08:02;96867.41;;;11.95;49.82
17209;BME280;8720;48.488;9.202;2022-12-07T13:10:45;96867.34;;;11.96;49.52
17209;BME280;8720;48.488;9.202;2022-12-07T13:13:41;96869.09;;;11.97;49.81
17209;BME280;8720;48.488;9.202;2022-12-07T13:16:39;96862.19;;;11.95;49.84
17209;BME280;8720;48.488;9.202;2022-12-07T13:19:59;96858.63;;;11.96;49.93
17209;BME280;8720;48.488;9.202;2022-12-07T13:22:51;96856.06;;;11.94;49.66
17209;BME280;8720;48.488;9.202;2022-12-07T13:25:33;96861.31;;;11.94;49.38
17209;BME280;8720;48.488;9.202;2022-12-07T13:28:15;96853.38;;;11.96;49.46
17209;BME280;8720;48.488;9.202;2022-12-07T13:33:44;96852.56;;;11.95;49.35
17209;BME280;8720;48.488;9.202;2022-12-07T13:36:21;96848.13;;;11.97;49.38
17209;BME280;8720;48.488;9.202;2022-12-07T13:38:56;96846.31;;;11.99;49.31
17209;BME280;8720;48.488;9.202;2022-12-07T13:41:26;96851.50;;;12.01;49.16
17209;BME280;8720;48.488;9.202;2022-12-07T13:44:01;96848.88;;;12.01;49.21
17209;BME280;8720;48.488;9.202;2022-12-07T13:46:44;96848.00;;;12.00;49.09
17209;BME280;8720;48.488;9.202;2022-12-07T13:49:21;96851.44;;;12.02;49.09
17209;BME280;8720;48.488;9.202;2022-12-07T13:51:49;96845.38;;;12.00;48.83
17209;BME280;8720;48.488;9.202;2022-12-07T13:54:18;96839.25;;;12.01;48.81
17209;BME280;8720;48.488;9.202;2022-12-07T13:56:50;96829.72;;;11.99;48.91
17209;BME280;8720;48.488;9.202;2022-12-07T13:59:20;96831.47;;;11.98;49.02